Time;durP1;ratioP1;P1;durP2;ratioP2;P2;SDS_P1;SDS_P2;PMS_P1;PMS_P2;Temp;Humidity;BMP_temperature;BMP_pressure;BME280_temperature;BME280_humidity;BME280_pressure;Samples;Min_cycle;Max_cycle;Signal;HPM_P1;HPM_P2
2021/10/19 00:02:14;;;;;;;20.57;15.80;;;12.60;99.90;;;;;;5073006;28;20170;-75
2021/10/19 00:04:39;;;;;;;15.93;12.77;;;12.60;99.90;;;;;;5072987;28;20167;-75
2021/10/19 00:07:05;;;;;;;14.97;13.40;;;12.60;99.90;;;;;;5072087;28;20171;-75
2021/10/19 00:09:30;;;;;;;16.40;14.63;;;12.60;99.90;;;;;;5061342;28;20237;-75
2021/10/19 00:11:56;;;;;;;16.90;13.33;;;12.60;99.90;;;;;;5066865;28;20192;-74
2021/10/19 00:14:21;;;;;;;16.27;14.30;;;12.60;99.90;;;;;;5072945;28;20187;-75
2021/10/19 00:16:47;;;;;;;14.60;13.10;;;12.60;99.90;;;;;;5072864;28;20274;-75
2021/10/19 00:19:12;;;;;;;15.07;13.10;;;12.60;99.90;;;;;;5072857;28;20205;-75
2021/10/19 00:21:38;;;;;;;16.87;14.90;;;12.60;99.90;;;;;;5072620;28;20163;-75
2021/10/19 00:24:04;;;;;;;17.70;13.97;;;12.60;99.90;;;;;;5062691;28;20188;-75
2021/10/19 00:26:29;;;;;;;17.47;14.57;;;12.60;99.90;;;;;;5052844;28;20164;-75
2021/10/19 00:28:55;;;;;;;15.60;13.60;;;12.60;99.90;;;;;;5052952;28;20180;-75
2021/10/19 00:31:21;;;;;;;18.53;14.50;;;12.60;99.90;;;;;;5068949;28;20199;-75
2021/10/19 00:33:46;;;;;;;16.70;14.90;;;12.60;99.90;;;;;;5072659;28;20174;-75
2021/10/19 00:36:12;;;;;;;16.10;14.03;;;12.70;99.90;;;;;;5072701;28;20669;-74
2021/10/19 00:38:37;;;;;;;14.83;13.23;;;12.70;99.90;;;;;;5072649;28;20193;-75
2021/10/19 00:41:03;;;;;;;14.73;13.20;;;12.70;99.90;;;;;;5062107;28;20580;-74
2021/10/19 00:43:29;;;;;;;18.47;14.87;;;12.80;99.90;;;;;;5066454;28;20539;-75
2021/10/19 00:45:55;;;;;;;18.97;13.80;;;12.80;99.90;;;;;;5072552;28;20187;-75
2021/10/19 00:48:24;;;;;;;13.30;11.90;;;12.80;99.90;;;;;;5072432;28;20159;-75
2021/10/19 00:50:51;;;;;;;15.33;13.00;;;12.80;99.90;;;;;;5071999;28;20432;-75
2021/10/19 00:53:17;;;;;;;15.50;12.87;;;12.90;99.90;;;;;;5072456;28;20397;-75
2021/10/19 00:55:43;;;;;;;14.57;12.50;;;12.90;99.90;;;;;;5071991;28;20474;-75
2021/10/19 00:58:09;;;;;;;17.47;13.13;;;12.90;99.90;;;;;;5061610;28;20410;-75
2021/10/19 01:00:36;;;;;;;15.17;13.40;;;12.90;99.90;;;;;;5059461;28;20424;-75
2021/10/19 01:03:01;;;;;;;15.50;13.90;;;12.90;99.90;;;;;;5072236;28;20171;-75
2021/10/19 01:05:27;;;;;;;17.93;13.50;;;12.90;99.90;;;;;;5061318;28;20794;-75
2021/10/19 01:07:53;;;;;;;17.10;15.10;;;13.00;99.90;;;;;;5052221;28;20560;-75
2021/10/19 01:10:19;;;;;;;19.00;14.20;;;13.00;99.90;;;;;;5056843;28;20464;-75
2021/10/19 01:12:44;;;;;;;15.70;13.00;;;13.00;99.90;;;;;;5072152;28;20163;-74
2021/10/19 01:15:13;;;;;;;17.70;13.93;;;13.00;99.90;;;;;;5061236;28;20598;-74
2021/10/19 01:17:48;;;;;;;19.53;16.40;;;13.00;99.90;;;;;;5052294;28;20528;-76
2021/10/19 01:22:54;;;;;;;13.63;12.03;;;13.00;99.90;;;;;;5069783;28;20637;-74
2021/10/19 01:25:23;;;;;;;16.60;13.47;;;13.00;99.90;;;;;;5070081;28;20421;-74
2021/10/19 01:27:51;;;;;;;15.30;13.60;;;13.10;99.90;;;;;;5069789;28;20456;-77
2021/10/19 01:30:18;;;;;;;15.20;13.60;;;13.10;99.90;;;;;;5069615;28;20422;-77
2021/10/19 01:32:44;;;;;;;15.20;13.60;;;13.10;99.90;;;;;;5053966;28;20442;-77
2021/10/19 01:35:10;;;;;;;17.50;13.17;;;13.10;99.90;;;;;;5068897;28;20455;-77
2021/10/19 01:37:36;;;;;;;16.90;15.10;;;13.10;99.90;;;;;;5069639;28;20797;-78
2021/10/19 01:40:06;;;;;;;19.30;14.93;;;13.10;99.90;;;;;;5069535;28;20386;-78
2021/10/19 01:42:34;;;;;;;17.30;14.17;;;13.10;99.90;;;;;;5050732;28;20246;-77
2021/10/19 01:45:00;;;;;;;15.20;13.37;;;13.10;99.90;;;;;;5049289;28;20402;-77
2021/10/19 01:47:27;;;;;;;23.20;17.47;;;13.10;99.90;;;;;;5049550;28;20486;-77
2021/10/19 01:49:52;;;;;;;23.87;15.37;;;13.10;99.90;;;;;;5065902;28;20422;-77
2021/10/19 01:52:18;;;;;;;16.40;13.93;;;13.00;99.90;;;;;;5052999;28;20566;-77
2021/10/19 01:54:44;;;;;;;17.60;15.77;;;13.00;99.90;;;;;;5049319;28;20287;-74
2021/10/19 01:57:09;;;;;;;15.90;13.23;;;13.00;99.90;;;;;;5049217;28;20180;-77
2021/10/19 01:59:35;;;;;;;16.20;13.97;;;13.00;99.90;;;;;;5049312;28;20521;-77
2021/10/19 02:02:00;;;;;;;17.60;15.40;;;13.00;99.90;;;;;;5049061;28;20534;-77
2021/10/19 02:04:26;;;;;;;17.50;15.03;;;13.00;99.90;;;;;;5059968;28;20180;-77
2021/10/19 02:06:51;;;;;;;16.07;14.10;;;13.00;99.90;;;;;;5049647;28;20222;-77
2021/10/19 02:09:17;;;;;;;15.67;14.07;;;13.00;99.90;;;;;;5049022;28;20474;-77
2021/10/19 02:11:42;;;;;;;15.97;14.23;;;13.00;99.90;;;;;;5058713;28;20234;-77
2021/10/19 02:14:08;;;;;;;19.10;15.27;;;13.00;99.90;;;;;;5068624;28;20586;-77
2021/10/19 02:16:33;;;;;;;16.13;14.50;;;13.00;99.90;;;;;;5068552;28;20218;-76
2021/10/19 02:18:59;;;;;;;16.80;14.00;;;13.00;99.90;;;;;;5068800;28;20620;-76
2021/10/19 02:21:24;;;;;;;14.83;13.30;;;13.00;99.90;;;;;;5061082;28;20207;-77
2021/10/19 02:23:50;;;;;;;14.50;13.00;;;13.00;99.90;;;;;;5064897;28;20230;-77
2021/10/19 02:26:15;;;;;;;13.93;12.60;;;13.00;99.90;;;;;;5068626;28;20182;-76
2021/10/19 02:28:41;;;;;;;17.97;14.90;;;13.00;99.90;;;;;;5068701;28;20623;-77
2021/10/19 02:31:06;;;;;;;14.90;13.30;;;13.00;99.90;;;;;;5067602;28;20191;-74
2021/10/19 02:33:33;;;;;;;14.40;13.00;;;13.00;99.90;;;;;;5059122;28;20176;-74
2021/10/19 02:35:58;;;;;;;17.53;15.10;;;13.00;99.90;;;;;;5055426;28;20262;-77
2021/10/19 02:38:24;;;;;;;15.33;13.10;;;13.00;99.90;;;;;;5055249;28;20418;-77
2021/10/19 02:40:50;;;;;;;19.37;15.47;;;13.00;99.90;;;;;;5043517;28;20691;-77
2021/10/19 02:43:15;;;;;;;16.97;14.80;;;13.00;99.90;;;;;;5035193;28;20250;-77
2021/10/19 02:45:41;;;;;;;16.57;14.70;;;13.00;99.90;;;;;;5035065;28;20161;-77
2021/10/19 02:48:07;;;;;;;17.57;15.60;;;13.00;99.90;;;;;;5034831;28;20153;-77
2021/10/19 02:50:32;;;;;;;17.27;14.60;;;13.00;99.90;;;;;;5034983;28;20184;-77
2021/10/19 02:52:58;;;;;;;18.30;16.10;;;12.90;99.90;;;;;;5035116;28;20192;-77
2021/10/19 02:55:23;;;;;;;15.70;14.03;;;12.90;99.90;;;;;;5035221;28;20681;-77
2021/10/19 02:57:49;;;;;;;18.40;15.50;;;12.90;99.90;;;;;;5035492;28;20257;-72
2021/10/19 03:00:16;;;;;;;17.73;15.93;;;12.80;99.90;;;;;;5035615;28;20216;-74
2021/10/19 03:02:42;;;;;;;18.10;16.20;;;12.80;99.90;;;;;;5034803;28;20192;-74
2021/10/19 03:05:08;;;;;;;19.53;15.40;;;12.70;99.90;;;;;;5046497;28;20412;-74
2021/10/19 03:07:34;;;;;;;18.70;16.00;;;12.70;99.90;;;;;;5034845;28;20161;-74
2021/10/19 03:10:00;;;;;;;21.00;16.57;;;12.70;99.90;;;;;;5036587;28;20501;-74
2021/10/19 03:12:25;;;;;;;17.73;15.87;;;12.70;99.90;;;;;;5054325;28;20172;-74
2021/10/19 03:14:51;;;;;;;16.70;15.00;;;12.70;99.90;;;;;;5037904;28;20283;-74
2021/10/19 03:17:16;;;;;;;16.10;14.50;;;12.70;99.90;;;;;;5034788;28;20165;-75
2021/10/19 03:19:42;;;;;;;17.40;15.60;;;12.60;99.90;;;;;;5034107;28;20583;-75
2021/10/19 03:22:09;;;;;;;19.60;17.50;;;12.60;99.90;;;;;;5053173;28;20207;-75
2021/10/19 03:24:34;;;;;;;17.03;15.30;;;12.60;99.90;;;;;;5054448;28;20291;-77
2021/10/19 03:27:00;;;;;;;22.67;15.93;;;12.60;99.90;;;;;;5054202;28;20866;-75
2021/10/19 03:29:26;;;;;;;18.90;15.10;;;12.60;99.90;;;;;;5054210;28;20214;-75
2021/10/19 03:31:52;;;;;;;19.30;16.40;;;12.60;99.90;;;;;;5037707;28;20210;-75
2021/10/19 03:34:17;;;;;;;16.30;14.47;;;12.60;99.90;;;;;;5054065;28;20169;-75
2021/10/19 03:36:43;;;;;;;16.93;15.10;;;12.60;99.90;;;;;;5054323;28;20453;-76
2021/10/19 03:39:08;;;;;;;16.33;14.77;;;12.60;99.90;;;;;;5053838;28;20254;-75
2021/10/19 03:41:34;;;;;;;17.40;15.37;;;12.60;99.90;;;;;;5040245;28;20199;-75
2021/10/19 03:44:00;;;;;;;18.43;16.50;;;12.60;99.90;;;;;;5043847;28;20176;-76
2021/10/19 03:46:25;;;;;;;19.33;15.97;;;12.60;99.90;;;;;;5053271;28;20175;-75
2021/10/19 03:48:51;;;;;;;23.07;16.73;;;12.60;99.90;;;;;;5037258;28;20653;-76
2021/10/19 03:51:16;;;;;;;19.00;17.00;;;12.60;99.90;;;;;;5034016;28;20180;-76
2021/10/19 03:53:42;;;;;;;19.97;17.10;;;12.60;99.90;;;;;;5034065;28;20204;-76
2021/10/19 03:56:08;;;;;;;22.93;16.83;;;12.60;99.90;;;;;;5033456;28;20564;-76
2021/10/19 03:58:34;;;;;;;17.63;15.93;;;12.60;99.90;;;;;;5033732;28;20407;-77
2021/10/19 04:00:59;;;;;;;20.13;15.93;;;12.60;99.90;;;;;;5033638;28;20545;-76
2021/10/19 04:03:25;;;;;;;20.70;17.20;;;12.60;99.90;;;;;;5048526;28;20564;-77
2021/10/19 04:05:51;;;;;;;20.47;16.53;;;12.60;99.90;;;;;;5038315;28;20176;-77
2021/10/19 04:08:17;;;;;;;19.10;17.20;;;12.60;99.90;;;;;;5033700;28;20260;-77
2021/10/19 04:10:42;;;;;;;20.53;17.47;;;12.60;99.90;;;;;;5038047;28;20482;-78
2021/10/19 04:13:08;;;;;;;21.33;18.07;;;12.60;99.90;;;;;;5053415;28;20615;-78
2021/10/19 04:15:34;;;;;;;20.40;17.80;;;12.60;99.90;;;;;;5053307;28;20624;-78
2021/10/19 04:17:59;;;;;;;20.33;17.40;;;12.50;99.90;;;;;;5053113;28;20238;-78
2021/10/19 04:20:25;;;;;;;19.97;17.83;;;12.50;99.90;;;;;;5050999;28;20160;-78
2021/10/19 04:22:50;;;;;;;19.57;17.47;;;12.50;99.90;;;;;;5033705;28;20851;-75
2021/10/19 04:25:16;;;;;;;20.47;18.30;;;12.50;99.90;;;;;;5033178;28;20185;-74
2021/10/19 04:27:42;;;;;;;20.37;18.03;;;12.50;99.90;;;;;;5036216;28;20177;-75
2021/10/19 04:30:08;;;;;;;21.17;18.93;;;12.50;99.90;;;;;;5040440;28;20604;-75
2021/10/19 04:32:34;;;;;;;21.30;18.03;;;12.50;99.90;;;;;;5038152;28;20204;-76
2021/10/19 04:35:00;;;;;;;18.67;16.70;;;12.50;99.90;;;;;;5040778;28;20770;-76
2021/10/19 04:37:25;;;;;;;19.43;17.40;;;12.50;99.90;;;;;;5043551;28;20168;-76
2021/10/19 04:39:51;;;;;;;20.37;17.20;;;12.50;99.90;;;;;;5041349;28;20636;-75
2021/10/19 04:42:16;;;;;;;18.37;15.87;;;12.50;99.90;;;;;;5038159;28;20231;-76
2021/10/19 04:44:44;;;;;;;16.37;13.80;;;12.60;99.90;;;;;;5032687;28;20180;-75
2021/10/19 04:47:10;;;;;;;16.40;14.53;;;12.60;99.90;;;;;;5032841;28;20668;-76
2021/10/19 04:49:38;;;;;;;15.43;12.17;;;12.60;99.90;;;;;;5032639;28;20403;-77
2021/10/19 04:52:04;;;;;;;19.13;16.10;;;12.60;99.90;;;;;;5052249;28;20160;-77
2021/10/19 04:54:29;;;;;;;14.63;13.03;;;12.60;99.90;;;;;;5052760;28;20398;-77
2021/10/19 04:56:55;;;;;;;14.67;13.00;;;12.60;99.90;;;;;;5034717;28;20924;-78
2021/10/19 04:59:21;;;;;;;17.97;14.43;;;12.60;99.90;;;;;;5044225;28;20652;-78
2021/10/19 05:01:46;;;;;;;15.27;13.67;;;12.60;99.90;;;;;;5034752;28;20551;-77
2021/10/19 05:04:15;;;;;;;16.30;13.00;;;12.60;99.90;;;;;;5051710;28;20168;-75
2021/10/19 05:06:41;;;;;;;16.87;13.63;;;12.60;99.90;;;;;;5032859;28;20516;-75
2021/10/19 05:09:07;;;;;;;14.93;13.30;;;12.60;99.90;;;;;;5032241;28;20388;-75
2021/10/19 05:11:32;;;;;;;14.80;13.30;;;12.70;99.90;;;;;;5046656;28;20441;-75
2021/10/19 05:13:58;;;;;;;15.50;13.90;;;12.70;99.90;;;;;;5040965;28;20187;-77
2021/10/19 05:16:23;;;;;;;15.70;14.10;;;12.70;99.90;;;;;;5037629;28;20181;-75
2021/10/19 05:18:49;;;;;;;17.10;14.40;;;12.70;99.90;;;;;;5032679;28;20153;-75
2021/10/19 05:21:14;;;;;;;18.03;14.87;;;12.70;99.90;;;;;;5032279;28;20207;-75
2021/10/19 05:23:40;;;;;;;15.17;13.57;;;12.70;99.90;;;;;;5032394;28;20174;-75
2021/10/19 05:26:05;;;;;;;16.60;14.90;;;12.70;99.90;;;;;;5032777;28;20165;-75
2021/10/19 05:28:32;;;;;;;16.07;14.33;;;12.70;99.90;;;;;;5032527;28;20533;-76
2021/10/19 05:30:58;;;;;;;16.60;13.20;;;12.70;99.90;;;;;;5034598;28;20246;-76
2021/10/19 05:33:24;;;;;;;15.53;13.90;;;12.70;99.90;;;;;;5039414;28;20549;-78
2021/10/19 05:35:51;;;;;;;14.10;12.60;;;12.70;99.90;;;;;;5050173;28;20927;-75
2021/10/19 05:38:17;;;;;;;14.00;12.60;;;12.70;99.90;;;;;;5052237;28;20172;-75
2021/10/19 05:40:42;;;;;;;16.43;14.50;;;12.80;99.90;;;;;;5049007;28;20786;-77
2021/10/19 05:43:08;;;;;;;13.83;12.40;;;12.70;99.90;;;;;;5036316;28;20172;-77
2021/10/19 05:45:34;;;;;;;14.77;13.27;;;12.70;99.90;;;;;;5040908;28;20152;-76
2021/10/19 05:47:59;;;;;;;12.63;11.00;;;12.80;99.90;;;;;;5042633;28;20798;-74
2021/10/19 05:50:25;;;;;;;13.07;11.57;;;12.70;99.90;;;;;;5038725;28;20670;-75
2021/10/19 05:52:50;;;;;;;12.10;10.87;;;12.70;99.90;;;;;;5036996;28;20192;-74
2021/10/19 05:55:16;;;;;;;11.70;10.60;;;12.70;99.90;;;;;;5036178;28;20176;-74
2021/10/19 05:57:41;;;;;;;9.87;8.87;;;12.70;99.90;;;;;;5043228;28;20169;-75
2021/10/19 06:00:08;;;;;;;12.53;9.50;;;12.70;99.90;;;;;;5045686;28;20177;-73
2021/10/19 06:02:34;;;;;;;10.60;9.10;;;12.70;99.90;;;;;;5047103;28;20270;-73
2021/10/19 06:04:59;;;;;;;10.43;9.43;;;12.70;99.90;;;;;;5039523;28;20422;-73
2021/10/19 06:07:25;;;;;;;10.07;9.07;;;12.80;99.90;;;;;;5044310;28;20179;-73
2021/10/19 06:09:51;;;;;;;9.93;8.93;;;12.80;99.90;;;;;;5041982;28;20252;-73
2021/10/19 06:12:16;;;;;;;10.50;9.40;;;12.80;99.90;;;;;;5035189;28;20185;-74
2021/10/19 06:14:42;;;;;;;9.37;8.53;;;12.80;99.90;;;;;;5035806;28;20208;-74
2021/10/19 06:17:12;;;;;;;10.10;9.10;;;12.80;99.90;;;;;;5049739;28;20168;-73
2021/10/19 06:19:38;;;;;;;10.83;9.60;;;12.80;99.90;;;;;;5039670;28;20188;-74
2021/10/19 06:22:03;;;;;;;10.10;8.83;;;12.80;99.90;;;;;;5036883;28;20477;-76
2021/10/19 06:24:29;;;;;;;9.03;8.10;;;12.90;99.90;;;;;;5051384;28;20168;-74
2021/10/19 06:26:55;;;;;;;9.50;8.50;;;12.90;99.90;;;;;;5051124;28;20180;-75
2021/10/19 06:29:20;;;;;;;9.43;8.37;;;12.80;99.90;;;;;;5044404;28;20160;-75
2021/10/19 06:31:46;;;;;;;9.47;8.57;;;12.90;99.90;;;;;;5044192;28;20442;-73
2021/10/19 06:34:11;;;;;;;9.97;9.00;;;12.90;99.90;;;;;;5053439;28;20226;-75
2021/10/19 06:36:38;;;;;;;9.03;8.13;;;12.90;99.90;;;;;;5047163;28;20522;-75
2021/10/19 06:39:04;;;;;;;9.23;8.33;;;12.90;99.90;;;;;;5046262;28;20186;-76
2021/10/19 06:41:31;;;;;;;8.27;7.43;;;13.00;99.90;;;;;;5040674;28;20485;-75
2021/10/19 06:43:57;;;;;;;8.70;7.90;;;13.00;99.90;;;;;;5033052;28;20439;-76
2021/10/19 06:46:22;;;;;;;8.20;7.27;;;13.00;99.90;;;;;;5039014;28;20438;-77
2021/10/19 06:48:48;;;;;;;7.93;7.00;;;13.00;99.90;;;;;;5035114;28;20804;-76
2021/10/19 06:51:13;;;;;;;9.10;7.10;;;13.00;99.90;;;;;;5034478;28;20180;-76
2021/10/19 06:53:39;;;;;;;7.53;6.53;;;13.00;99.90;;;;;;5035795;28;20287;-73
2021/10/19 06:56:04;;;;;;;7.70;7.00;;;13.00;99.90;;;;;;5049180;28;20176;-74
2021/10/19 06:58:30;;;;;;;8.97;6.77;;;13.00;99.90;;;;;;5033840;28;20153;-73
2021/10/19 07:00:57;;;;;;;6.63;5.93;;;13.00;99.90;;;;;;5032533;28;20208;-74
2021/10/19 07:03:24;;;;;;;6.73;5.77;;;13.00;99.90;;;;;;5032284;28;20181;-73
2021/10/19 07:05:50;;;;;;;6.50;5.90;;;13.00;99.90;;;;;;5039239;28;20442;-73
2021/10/19 07:08:16;;;;;;;8.10;7.30;;;13.10;99.90;;;;;;5049318;28;20403;-73
2021/10/19 07:10:41;;;;;;;6.37;5.80;;;13.10;99.90;;;;;;5047175;28;20438;-73
2021/10/19 07:13:07;;;;;;;7.20;6.50;;;13.20;99.90;;;;;;5035786;28;20180;-73
2021/10/19 07:15:34;;;;;;;7.00;6.30;;;13.20;99.90;;;;;;5034524;28;20187;-73
2021/10/19 07:18:02;;;;;;;6.90;6.30;;;13.20;99.90;;;;;;5041865;28;20183;-73
2021/10/19 07:20:28;;;;;;;7.73;5.80;;;13.20;99.90;;;;;;5053590;28;20795;-74
2021/10/19 07:22:55;;;;;;;7.70;7.00;;;13.20;99.90;;;;;;5040383;28;20464;-74
2021/10/19 07:25:21;;;;;;;7.87;6.30;;;13.20;99.90;;;;;;5045612;28;20168;-73
2021/10/19 07:27:46;;;;;;;7.13;6.40;;;13.30;99.90;;;;;;5053078;28;20472;-73
2021/10/19 07:30:12;;;;;;;6.30;5.70;;;13.30;99.90;;;;;;5039757;28;20283;-73
2021/10/19 07:32:38;;;;;;;7.00;6.30;;;13.30;99.90;;;;;;5044962;28;20295;-73
2021/10/19 07:35:04;;;;;;;8.00;6.60;;;13.30;99.90;;;;;;5044990;28;20894;-73
2021/10/19 07:37:35;;;;;;;7.83;7.13;;;13.30;99.90;;;;;;5034566;28;20169;-74
2021/10/19 07:40:01;;;;;;;7.10;6.40;;;13.30;99.90;;;;;;5034534;28;20157;-73
2021/10/19 07:42:26;;;;;;;7.40;6.70;;;13.40;99.90;;;;;;5038668;28;20962;-73
2021/10/19 07:44:52;;;;;;;7.10;6.27;;;13.40;99.90;;;;;;5034770;28;20188;-73
2021/10/19 07:47:18;;;;;;;6.00;5.40;;;13.40;99.90;;;;;;5034131;28;20169;-73
2021/10/19 07:49:43;;;;;;;5.43;4.93;;;13.50;99.90;;;;;;5034194;28;20175;-73
2021/10/19 07:52:09;;;;;;;6.00;5.40;;;13.50;99.90;;;;;;5033686;28;20625;-73
2021/10/19 07:54:35;;;;;;;6.13;5.53;;;13.50;99.90;;;;;;5046155;28;20179;-73
2021/10/19 07:57:00;;;;;;;7.27;6.17;;;13.50;99.90;;;;;;5052787;28;20586;-74
2021/10/19 07:59:26;;;;;;;6.83;5.50;;;13.50;99.90;;;;;;5046117;28;20435;-73
2021/10/19 08:01:51;;;;;;;6.50;5.90;;;13.50;99.90;;;;;;5038028;28;20262;-73
2021/10/19 08:04:17;;;;;;;6.60;5.70;;;13.50;99.90;;;;;;5049728;28;20172;-73
2021/10/19 08:06:42;;;;;;;7.47;6.60;;;13.60;99.90;;;;;;5038931;28;20731;-73
2021/10/19 08:09:08;;;;;;;6.10;5.60;;;13.60;99.90;;;;;;5038207;28;20208;-73
2021/10/19 08:11:34;;;;;;;6.47;5.40;;;13.60;99.90;;;;;;5045504;28;20249;-73
2021/10/19 08:13:59;;;;;;;6.90;6.20;;;13.60;99.90;;;;;;5035767;28;20267;-73
2021/10/19 08:16:26;;;;;;;6.03;5.53;;;13.60;99.90;;;;;;5035262;28;20196;-74
2021/10/19 08:18:52;;;;;;;9.50;6.17;;;13.60;99.90;;;;;;5038024;28;20582;-73
2021/10/19 08:21:19;;;;;;;5.43;4.93;;;13.60;99.90;;;;;;5046068;28;20463;-74
2021/10/19 08:23:45;;;;;;;6.23;5.63;;;13.60;99.90;;;;;;5036195;28;20920;-74
2021/10/19 08:26:11;;;;;;;5.87;5.37;;;13.70;99.90;;;;;;5035744;28;20509;-74
2021/10/19 08:28:43;;;;;;;6.03;5.43;;;13.70;99.90;;;;;;5045614;28;20510;-74
2021/10/19 08:31:10;;;;;;;7.73;5.00;;;13.70;99.90;;;;;;5035663;28;20223;-72
2021/10/19 08:33:36;;;;;;;6.53;4.60;;;13.70;99.90;;;;;;5032508;28;20457;-73
2021/10/19 08:36:02;;;;;;;6.00;5.50;;;13.70;99.90;;;;;;5036984;28;20435;-72
2021/10/19 08:38:28;;;;;;;5.63;5.10;;;13.70;99.90;;;;;;5049786;28;20429;-72
2021/10/19 08:40:56;;;;;;;10.43;6.63;;;13.70;99.90;;;;;;5039466;28;20431;-72
2021/10/19 08:43:22;;;;;;;5.20;4.80;;;13.70;99.90;;;;;;5043333;28;20176;-73
2021/10/19 08:45:48;;;;;;;4.63;4.23;;;13.70;99.90;;;;;;5036612;28;20418;-72
2021/10/19 08:48:14;;;;;;;5.13;4.63;;;13.70;99.90;;;;;;5032053;28;20165;-72
2021/10/19 08:50:39;;;;;;;5.17;4.77;;;13.70;99.90;;;;;;5036026;28;20425;-73
2021/10/19 08:53:05;;;;;;;15.90;10.23;;;13.70;99.90;;;;;;5035849;28;20185;-73
2021/10/19 08:55:30;;;;;;;16.97;8.47;;;13.70;99.90;;;;;;5033306;28;20169;-74
2021/10/19 08:58:01;;;;;;;9.60;7.20;;;13.70;99.90;;;;;;5043740;28;20187;-74
2021/10/19 09:00:28;;;;;;;8.10;6.87;;;13.80;99.90;;;;;;5040458;28;20168;-73
2021/10/19 09:02:54;;;;;;;6.30;5.67;;;13.80;99.90;;;;;;5031275;28;20866;-72
2021/10/19 09:05:23;;;;;;;5.10;4.60;;;13.80;99.90;;;;;;5035311;28;20426;-72
2021/10/19 09:08:08;;;;;;;4.83;3.70;;;13.90;99.90;;;;;;5047385;28;20415;-72
2021/10/19 09:10:37;;;;;;;4.87;4.33;;;13.90;99.90;;;;;;5032274;28;20488;-73
2021/10/19 09:13:05;;;;;;;4.10;3.70;;;14.00;99.90;;;;;;5032445;28;20412;-73
2021/10/19 09:15:34;;;;;;;3.93;3.63;;;14.00;99.90;;;;;;5032462;28;20402;-73
2021/10/19 09:20:44;;;;;;;4.27;3.87;;;14.00;99.90;;;;;;5049046;28;20525;-72
2021/10/19 09:23:13;;;;;;;4.87;4.47;;;14.00;99.90;;;;;;5049882;28;20474;-72
2021/10/19 09:25:41;;;;;;;4.07;3.67;;;14.10;99.90;;;;;;5049871;28;20915;-72
2021/10/19 09:28:11;;;;;;;5.40;4.23;;;14.10;99.90;;;;;;5049805;28;20438;-72
2021/10/19 09:30:47;;;;;;;10.90;4.40;;;14.10;99.90;;;;;;5049257;28;20426;-72
2021/10/19 09:33:16;;;;;;;4.67;4.27;;;14.10;99.90;;;;;;5048774;28;20914;-74
2021/10/19 09:35:43;;;;;;;4.10;3.77;;;14.10;99.90;;;;;;5046400;28;20941;-72
2021/10/19 09:38:11;;;;;;;5.13;4.70;;;14.10;99.90;;;;;;5049413;28;20411;-72
2021/10/19 09:40:40;;;;;;;6.73;4.93;;;14.10;99.90;;;;;;5048392;28;20695;-72
2021/10/19 09:43:08;;;;;;;4.90;4.50;;;14.20;99.90;;;;;;5049154;28;20441;-72
2021/10/19 09:45:34;;;;;;;3.83;3.53;;;14.20;99.90;;;;;;5040433;28;20449;-73
2021/10/19 09:48:01;;;;;;;4.73;4.20;;;14.20;99.90;;;;;;5048468;28;20542;-74
2021/10/19 09:50:29;;;;;;;4.00;3.60;;;14.20;99.90;;;;;;5047998;28;20560;-73
2021/10/19 09:52:55;;;;;;;3.90;3.60;;;14.30;99.90;;;;;;5045897;28;20431;-72
2021/10/19 09:55:22;;;;;;;4.10;3.80;;;14.40;99.90;;;;;;5047259;28;21159;-72
2021/10/19 09:57:51;;;;;;;3.80;3.40;;;14.40;99.90;;;;;;5037760;28;20462;-71
2021/10/19 10:00:17;;;;;;;4.40;3.30;;;14.40;99.90;;;;;;5049477;28;20443;-71
2021/10/19 10:02:45;;;;;;;3.50;3.20;;;14.40;99.90;;;;;;5048897;28;20418;-72
2021/10/19 10:05:11;;;;;;;3.10;2.80;;;14.40;99.90;;;;;;5045844;28;20836;-73
2021/10/19 10:07:41;;;;;;;2.70;2.50;;;14.40;99.90;;;;;;5047606;28;20923;-72
2021/10/19 10:10:08;;;;;;;2.70;2.50;;;14.50;99.90;;;;;;5047804;28;20423;-72
2021/10/19 10:12:34;;;;;;;3.93;2.77;;;14.50;99.90;;;;;;5048048;28;20449;-74
2021/10/19 10:15:01;;;;;;;3.30;3.00;;;14.50;99.90;;;;;;5043139;28;20788;-72
2021/10/19 10:17:27;;;;;;;2.70;2.50;;;14.60;99.90;;;;;;5029139;28;20397;-73
2021/10/19 10:19:53;;;;;;;3.90;3.60;;;14.60;99.90;;;;;;5044023;28;21154;-72
2021/10/19 10:22:25;;;;;;;2.83;2.63;;;14.70;99.90;;;;;;5044224;28;20179;-72
2021/10/19 10:25:03;;;;;;;3.30;3.00;;;14.60;99.90;;;;;;5047235;28;20417;-72
2021/10/19 10:27:29;;;;;;;2.60;2.40;;;14.70;99.90;;;;;;5048759;28;20395;-72
2021/10/19 10:29:54;;;;;;;3.47;3.17;;;14.70;99.90;;;;;;5047003;28;20422;-72
2021/10/19 10:37:57;;;;;;;2.17;2.07;;;14.70;99.90;;;;;;5082397;28;20565;-71
2021/10/19 10:40:33;;;;;;;3.57;2.80;;;14.70;99.90;;;;;;5061813;28;20469;-71
2021/10/19 10:43:15;;;;;;;2.30;2.10;;;14.80;99.90;;;;;;5058760;28;20433;-71
2021/10/19 10:45:40;;;;;;;2.07;1.90;;;14.80;99.90;;;;;;5067715;28;20429;-72
2021/10/19 10:48:06;;;;;;;2.30;2.10;;;14.80;99.90;;;;;;5062853;28;20433;-72
2021/10/19 10:50:34;;;;;;;2.63;2.43;;;14.80;99.90;;;;;;5063620;28;20168;-73
2021/10/19 10:55:49;;;;;;;2.90;2.57;;;14.90;99.90;;;;;;5072248;28;20542;-74
2021/10/19 10:58:23;;;;;;;3.20;2.03;;;14.90;99.90;;;;;;5049213;28;20436;-74
2021/10/19 11:00:49;;;;;;;2.53;2.20;;;14.90;99.90;;;;;;5050882;28;20491;-72
2021/10/19 11:03:16;;;;;;;2.27;2.07;;;14.90;99.90;;;;;;5045444;28;20441;-73
2021/10/19 11:05:56;;;;;;;1.63;1.53;;;14.90;99.90;;;;;;5054047;28;20163;-72
2021/10/19 11:13:58;;;;;;;1.93;1.57;;;15.00;99.90;;;;;;5082789;28;20557;-73
2021/10/19 11:16:45;;;;;;;1.50;1.40;;;15.00;99.90;;;;;;5062160;28;21024;-73
2021/10/19 11:19:33;;;;;;;2.47;1.73;;;15.00;99.90;;;;;;5056149;28;20489;-73
2021/10/19 11:22:03;;;;;;;2.10;1.83;;;15.10;99.90;;;;;;5064052;28;20428;-72
2021/10/19 11:24:30;;;;;;;2.37;2.17;;;15.00;99.90;;;;;;5054839;28;20420;-73
2021/10/19 11:26:56;;;;;;;1.70;1.60;;;15.00;99.90;;;;;;5048927;28;20426;-73
2021/10/19 11:29:23;;;;;;;2.33;2.13;;;15.00;99.90;;;;;;5048664;28;20440;-73
2021/10/19 11:31:49;;;;;;;2.30;2.10;;;15.10;99.90;;;;;;5055211;28;20524;-72
2021/10/19 11:34:16;;;;;;;2.20;2.00;;;15.10;99.90;;;;;;5042894;28;20439;-72
2021/10/19 11:36:42;;;;;;;2.03;1.93;;;15.20;99.90;;;;;;5044765;28;20442;-72
2021/10/19 11:39:12;;;;;;;3.57;2.03;;;15.20;99.90;;;;;;5045379;28;21334;-72
2021/10/19 11:41:44;;;;;;;2.30;2.10;;;15.30;99.90;;;;;;5033451;28;20434;-73
2021/10/19 11:44:10;;;;;;;2.30;2.10;;;15.30;99.90;;;;;;5039778;28;20436;-73
2021/10/19 11:46:36;;;;;;;2.10;1.90;;;15.30;99.90;;;;;;5036021;28;20423;-72
2021/10/19 11:49:04;;;;;;;2.50;2.30;;;15.40;99.90;;;;;;5043242;28;20454;-72
2021/10/19 11:51:32;;;;;;;1.80;1.70;;;15.30;99.90;;;;;;5035526;28;20983;-72
2021/10/19 11:54:00;;;;;;;2.93;2.53;;;15.40;99.90;;;;;;5034747;28;20429;-72
2021/10/19 11:56:27;;;;;;;2.60;2.40;;;15.40;99.90;;;;;;5035453;28;20987;-72
2021/10/19 11:58:55;;;;;;;2.30;2.10;;;15.40;99.90;;;;;;5034083;28;20439;-73
2021/10/19 12:01:24;;;;;;;2.47;2.27;;;15.30;99.90;;;;;;5040788;28;20430;-72
2021/10/19 12:03:59;;;;;;;2.40;2.17;;;15.30;99.90;;;;;;5034679;28;20776;-72
2021/10/19 12:06:27;;;;;;;2.20;1.73;;;15.30;99.90;;;;;;5041630;28;20426;-72
2021/10/19 12:08:55;;;;;;;3.00;2.23;;;15.30;99.90;;;;;;5031553;28;20415;-72
2021/10/19 12:11:24;;;;;;;2.03;1.90;;;15.30;99.90;;;;;;5038155;28;20427;-73
2021/10/19 12:13:56;;;;;;;3.60;2.50;;;15.40;99.90;;;;;;5036642;28;20460;-73
2021/10/19 12:16:25;;;;;;;2.77;2.57;;;15.40;99.90;;;;;;5030112;28;20425;-73
2021/10/19 12:18:50;;;;;;;3.23;2.93;;;15.30;99.90;;;;;;5036340;28;20465;-72
2021/10/19 12:21:16;;;;;;;3.97;3.67;;;15.40;99.90;;;;;;5029315;28;20450;-72
2021/10/19 12:23:51;;;;;;;3.90;3.60;;;15.40;99.90;;;;;;5026589;28;20191;-72
2021/10/19 12:26:20;;;;;;;4.00;3.70;;;15.40;99.90;;;;;;5025559;28;20183;-73
2021/10/19 12:28:50;;;;;;;4.80;4.40;;;15.40;99.90;;;;;;5037665;28;20493;-72
2021/10/19 12:31:15;;;;;;;4.17;3.87;;;15.40;99.90;;;;;;5031794;28;20439;-73
2021/10/19 12:33:41;;;;;;;4.30;4.00;;;15.40;99.90;;;;;;5024689;28;20521;-72
2021/10/19 12:36:09;;;;;;;4.47;4.07;;;15.40;99.90;;;;;;5032447;28;20191;-73
2021/10/19 12:38:42;;;;;;;5.90;4.90;;;15.40;99.90;;;;;;5029614;28;20191;-72
2021/10/19 12:41:17;;;;;;;4.03;3.73;;;15.40;99.90;;;;;;5025774;28;20438;-73
2021/10/19 12:43:47;;;;;;;4.37;4.03;;;15.40;99.90;;;;;;5031979;28;20436;-72
2021/10/19 12:46:14;;;;;;;4.93;4.53;;;15.40;99.90;;;;;;5032738;28;20998;-72
2021/10/19 12:48:41;;;;;;;4.27;3.97;;;15.40;99.90;;;;;;5042712;28;20428;-73
2021/10/19 12:51:12;;;;;;;6.03;5.53;;;15.40;99.90;;;;;;5036430;28;20488;-72
2021/10/19 12:53:38;;;;;;;5.37;4.90;;;15.50;99.90;;;;;;5026193;28;20540;-72
2021/10/19 12:56:05;;;;;;;5.10;4.70;;;15.50;99.90;;;;;;5029909;28;20479;-73